Flight Track Log - Related Links

Times and Time Zones

All times are in EDT time to prevent confusion due to time zone crossing. See the CHQ6080 flight status page for this flight to view local times or setup timezone preferences in your user account.

Time Position Orientation Groundspeed Altitude Reporting Facility
EDT Latitude Longitude Course Direction KTS MPH feet Rate Location/Type
Mon 06:03:03 PM 40.6000 -73.8000 315° West 194 223 2,100  Level New York TRACON
Mon 06:04:03 PM 40.5333 -73.8000 180° South 257 296 4,300 2,350 Climbing New York TRACON
Mon 06:05:00 PM 40.8919 -74.1337 315° West  Level FlightAware Approximate
Mon 06:05:03 PM 40.5500 -73.7333 72° East 268 308 6,800  Level New York TRACON
Mon 06:06:00 PM 40.9607 -74.2231 316° Northwest  Level FlightAware Approximate
Mon 06:06:03 PM 40.6167 -73.6833 30° Northeast 273 314 9,600  Level New York TRACON
Mon 06:07:00 PM 41.0298 -74.3121 316° Northwest  Level FlightAware Approximate
Mon 06:07:03 PM 40.6833 -73.6333 30° Northeast 294 338 11,400  Level New York TRACON
Mon 06:07:57 PM 40.7667 -73.5833 24° Northeast 327 376 12,900 1,800 Climbing New York TRACON
Mon 06:08:00 PM 41.1017 -74.3967 315° West  Level FlightAware Approximate
Mon 06:09:03 PM 40.8667 -73.5833 360° North 327 376 15,000  Level New York TRACON
Mon 06:09:57 PM 40.9333 -73.6333 330° Northwest 331 381 16,500 698 Climbing New York TRACON
Mon 06:11:55 PM 41.0150 -73.8594 296° West 368 423 17,000 170 Climbing New York Center
Mon 06:12:53 PM 41.0514 -73.9739 293° West 379 436 17,000  Level New York Center
Mon 06:13:54 PM 41.0933 -74.1161 291° West 379 436 17,000  Level New York Center
Mon 06:14:54 PM 41.1292 -74.2447 290° West 374 430 17,000 393 Level New York Center
Mon 06:15:56 PM 41.1692 -74.3736 292° West 374 430 17,800 500 Climbing New York Center
Mon 06:16:54 PM 41.2067 -74.5050 291° West 374 430 18,000 102 Climbing New York Center
Mon 06:17:54 PM 41.2569 -74.6267 299° West 374 430 18,000  Level New York Center
Mon 06:18:56 PM 41.3261 -74.7408 309° West 390 449 18,000  Level New York Center
Mon 06:19:56 PM 41.3931 -74.8500 309° West 390 449 18,000  Level New York Center
Mon 06:20:56 PM 41.4622 -74.9594 310° West 390 449 18,000  Level New York Center
Mon 06:21:55 PM 41.5231 -75.0603 309° West 385 443 18,000  Level New York Center
Mon 06:22:56 PM 41.5956 -75.1842 308° West 385 443 18,000  Level New York Center
Mon 06:23:56 PM 41.6642 -75.2969 309° West 385 443 18,000  Level New York Center
Mon 06:24:54 PM 41.7308 -75.4097 308° West 385 443 18,000  Level New York Center
Mon 06:25:55 PM 41.7911 -75.5114 309° West 385 443 18,000  Level New York Center
Mon 06:26:56 PM 41.8575 -75.6247 308° West 385 443 18,000 -248 Level New York Center
Mon 06:27:56 PM 41.9217 -75.7353 308° West 380 437 17,500 -763 Descending New York Center
Mon 06:28:54 PM 41.9875 -75.8492 308° West 380 437 16,500 -1,109 Descending New York Center
Mon 06:29:55 PM 42.0556 -75.9633 309° West 380 437 15,300 -1,091 Descending New York Center
Mon 06:30:55 PM 42.1194 -76.0717 309° West 380 437 14,300 -992 Descending New York Center
Mon 06:31:56 PM 42.2064 -76.1292 334° Northwest 354 407 13,300 -1,210 Descending New York Center
Mon 06:32:54 PM 42.3067 -76.1206 North 338 389 11,900 -1,160 Descending New York Center
Mon 06:33:55 PM 42.3986 -76.1111 North 349 402 11,000 -529 Descending New York Center
Mon 06:34:36 PM 42.4706 -76.0997 North 344 396 11,000  Level Boston Center
Mon 06:35:43 PM 42.5814 -76.0892 North 341 392 11,000 -98 Level Boston Center
Mon 06:36:38 PM 42.6506 -76.0792 North 298 343 10,800 -879 Descending Boston Center
Mon 06:37:39 PM 42.7300 -76.0725 North 274 315 9,300 -1,512 Descending Boston Center
Mon 06:38:45 PM 42.8178 -76.0636 North 267 307 7,600 -1,512 Descending Boston Center
Mon 06:39:46 PM 42.8889 -76.0619 North 260 299 6,100 -1,488 Descending Boston Center
Mon 06:40:46 PM 42.9603 -76.0436 11° North 258 297 4,600 -1,304 Descending Boston Center
Mon 06:41:41 PM 43.0175 -76.0186 18° North 229 264 3,600 -1,200 Descending Boston Center
Mon 06:42:41 PM 43.0742 -76.0047 10° North 198 228 2,300 -1,091 Descending Boston Center
Mon 06:43:42 PM 43.1086 -76.0381 325° Northwest 129 148 1,400 -885 Descending Boston Center

Login

Don't have an account? Register now (free) for customized features, flight alerts, and more!